createdAt,value
2019-03-12T00:00:01.543Z,20.10
2019-03-12T00:01:01.537Z,20.06
2019-03-12T00:02:01.536Z,20.13
2019-03-12T00:03:01.444Z,20.10
2019-03-12T00:04:01.438Z,20.10
2019-03-12T00:05:01.464Z,20.09
2019-03-12T00:06:01.490Z,20.13
2019-03-12T00:07:01.405Z,20.13
2019-03-12T00:08:01.395Z,20.03
2019-03-12T00:09:01.372Z,20.02
2019-03-12T00:10:01.359Z,20.06
2019-03-12T00:11:01.368Z,20.03
2019-03-12T00:12:01.357Z,20.06
2019-03-12T00:13:01.364Z,20.04
2019-03-12T00:14:01.356Z,20.00
2019-03-12T00:15:01.328Z,19.96
2019-03-12T00:16:01.325Z,19.95
2019-03-12T00:17:01.282Z,19.94
2019-03-12T00:18:01.340Z,19.94
2019-03-12T00:19:01.271Z,20.02
2019-03-12T00:20:01.268Z,20.02
2019-03-12T00:21:01.462Z,19.99
2019-03-12T00:22:01.388Z,19.96
2019-03-12T00:23:01.269Z,20.04
2019-03-12T00:24:01.208Z,19.99
2019-03-12T00:25:01.242Z,20.04
2019-03-12T00:26:01.221Z,19.99
2019-03-12T00:27:01.179Z,19.95
2019-03-12T00:28:01.191Z,19.99
2019-03-12T00:29:01.149Z,20.00
2019-03-12T00:30:01.184Z,20.02
2019-03-12T00:31:01.128Z,20.03
2019-03-12T00:32:01.109Z,19.95
2019-03-12T00:33:01.100Z,19.94
2019-03-12T00:34:01.089Z,19.96
2019-03-12T00:35:01.070Z,19.92
2019-03-12T00:36:01.111Z,19.96
2019-03-12T00:37:01.052Z,19.95
2019-03-12T00:38:01.056Z,20.00
2019-03-12T00:39:01.098Z,20.00
2019-03-12T00:40:01.063Z,20.00
2019-03-12T00:41:01.115Z,20.02
2019-03-12T00:42:00.989Z,19.99
2019-03-12T00:43:00.993Z,19.92
2019-03-12T00:44:00.975Z,19.92
2019-03-12T00:45:00.996Z,19.94
2019-03-12T00:46:01.010Z,19.92
2019-03-12T00:47:00.953Z,19.91
2019-03-12T00:48:00.938Z,19.89
2019-03-12T00:49:00.917Z,19.81
2019-03-12T00:50:00.958Z,19.85
2019-03-12T00:51:00.907Z,19.91
2019-03-12T00:52:00.879Z,19.88
2019-03-12T00:53:00.915Z,19.89
2019-03-12T00:54:00.890Z,19.84
2019-03-12T00:55:00.935Z,19.91
2019-03-12T00:56:00.888Z,19.84
2019-03-12T00:57:00.855Z,19.91
2019-03-12T00:58:00.860Z,19.89
2019-03-12T00:59:00.822Z,19.85
2019-03-12T01:00:00.813Z,19.89
2019-03-12T01:01:00.808Z,19.88
2019-03-12T01:02:00.903Z,19.92
2019-03-12T01:03:00.840Z,19.91
2019-03-12T01:04:00.782Z,19.89
2019-03-12T01:05:00.758Z,19.92
2019-03-12T01:06:00.743Z,19.92
2019-03-12T01:07:00.738Z,19.91
2019-03-12T01:08:00.723Z,19.92
2019-03-12T01:09:00.746Z,19.84
2019-03-12T01:10:00.776Z,19.85
2019-03-12T01:11:00.754Z,19.85
2019-03-12T01:12:01.037Z,20.00
2019-03-12T01:13:00.645Z,19.91
2019-03-12T01:14:00.641Z,19.86
2019-03-12T01:15:00.693Z,19.81
2019-03-12T01:16:00.615Z,19.89
2019-03-12T01:17:00.619Z,19.86
2019-03-12T01:18:00.612Z,19.88
2019-03-12T01:19:00.596Z,19.88
2019-03-12T01:20:00.566Z,19.96
2019-03-12T01:21:00.584Z,19.99
2019-03-12T01:22:00.556Z,19.89
2019-03-12T01:23:00.530Z,20.06
2019-03-12T01:24:00.547Z,20.00
2019-03-12T01:25:00.508Z,20.02
2019-03-12T01:26:00.504Z,19.94
2019-03-12T01:27:00.512Z,19.95
2019-03-12T01:28:00.492Z,19.95
2019-03-12T01:29:00.547Z,19.96
2019-03-12T01:30:00.450Z,19.94
2019-03-12T01:31:00.471Z,20.06
2019-03-12T01:32:00.536Z,20.02
2019-03-12T01:33:00.422Z,19.95
2019-03-12T01:34:00.404Z,19.92
2019-03-12T01:35:00.417Z,20.02
2019-03-12T01:36:00.439Z,20.02
2019-03-12T01:37:00.392Z,20.02
2019-03-12T01:38:00.386Z,19.92
2019-03-12T01:39:01.021Z,19.84
2019-03-12T01:40:00.463Z,19.96
2019-03-12T01:41:00.386Z,19.92
2019-03-12T01:42:00.328Z,19.85
2019-03-12T01:43:00.321Z,19.89
2019-03-12T01:44:00.303Z,19.86
2019-03-12T01:45:00.367Z,19.94
2019-03-12T01:46:00.282Z,19.91
2019-03-12T01:47:00.288Z,19.86
2019-03-12T01:48:00.287Z,19.86
2019-03-12T01:49:00.243Z,19.92
2019-03-12T01:50:00.350Z,19.86
2019-03-12T01:51:00.211Z,19.82
2019-03-12T01:52:00.214Z,19.86
2019-03-12T01:53:00.206Z,19.88
2019-03-12T01:54:00.215Z,19.85
2019-03-12T01:55:00.359Z,19.88
2019-03-12T01:56:00.178Z,19.70
2019-03-12T01:57:00.151Z,19.86
2019-03-12T01:58:00.132Z,19.88
2019-03-12T01:59:00.134Z,19.86
2019-03-12T02:00:00.164Z,19.85
2019-03-12T02:01:00.108Z,19.88
2019-03-12T02:02:00.212Z,19.84
2019-03-12T02:03:00.096Z,19.85
2019-03-12T02:04:00.096Z,19.89
2019-03-12T02:05:00.051Z,19.89
2019-03-12T02:06:00.053Z,19.89
2019-03-12T02:07:00.069Z,19.88
2019-03-12T02:08:00.033Z,19.91
2019-03-12T02:09:00.017Z,19.85
2019-03-12T02:10:00.001Z,19.89
2019-03-12T02:11:00.024Z,19.91
2019-03-12T02:11:59.994Z,19.86
2019-03-12T02:12:59.971Z,19.88
2019-03-12T02:13:59.954Z,19.88
2019-03-12T02:14:59.994Z,19.86
2019-03-12T02:15:59.949Z,19.84
2019-03-12T02:17:00.016Z,19.88
2019-03-12T02:17:59.932Z,19.88
2019-03-12T02:19:00.009Z,19.81
2019-03-12T02:19:59.900Z,19.86
2019-03-12T02:20:59.888Z,19.88
2019-03-12T02:21:59.910Z,19.84
2019-03-12T02:23:00.004Z,19.95
2019-03-12T02:23:59.849Z,19.85
2019-03-12T02:24:59.889Z,19.84
2019-03-12T02:25:59.825Z,19.91
2019-03-12T02:26:59.873Z,19.85
2019-03-12T02:27:59.835Z,19.84
2019-03-12T02:28:59.778Z,19.85
2019-03-12T02:29:59.791Z,19.85
2019-03-12T02:30:59.766Z,19.86
2019-03-12T02:31:59.765Z,19.77
2019-03-12T02:32:59.781Z,19.85
2019-03-12T02:33:59.748Z,19.89
2019-03-12T02:34:59.713Z,19.85
2019-03-12T02:35:59.710Z,19.86
2019-03-12T02:36:59.727Z,19.88
2019-03-12T02:37:59.695Z,19.86
2019-03-12T02:38:59.685Z,19.91
2019-03-12T02:39:59.700Z,19.85
2019-03-12T02:40:59.665Z,19.91
2019-03-12T02:41:59.724Z,19.89
2019-03-12T02:42:59.649Z,19.88
2019-03-12T02:43:59.655Z,19.96
2019-03-12T02:44:59.606Z,19.88
2019-03-12T02:45:59.598Z,19.89
2019-03-12T02:46:59.589Z,19.85
2019-03-12T02:47:59.576Z,19.86
2019-03-12T02:48:59.561Z,19.92
2019-03-12T02:49:59.548Z,19.82
2019-03-12T02:50:59.551Z,19.91
2019-03-12T02:51:59.530Z,19.82
2019-03-12T02:52:59.520Z,19.95
2019-03-12T02:53:59.529Z,19.88
2019-03-12T02:54:59.506Z,19.86
2019-03-12T02:56:01.861Z,19.85
2019-03-12T02:56:59.543Z,19.89
2019-03-12T02:57:59.470Z,19.88
2019-03-12T02:58:59.441Z,19.86
2019-03-12T02:59:59.433Z,19.84
2019-03-12T03:00:59.456Z,19.79
2019-03-12T03:01:59.550Z,19.76
2019-03-12T03:02:59.427Z,19.74
2019-03-12T03:03:59.406Z,19.79
2019-03-12T03:04:59.380Z,19.79
2019-03-12T03:05:59.364Z,19.73
2019-03-12T03:06:59.351Z,19.85
2019-03-12T03:07:59.372Z,19.81
2019-03-12T03:08:59.333Z,19.79
2019-03-12T03:09:59.329Z,19.81
2019-03-12T03:10:59.305Z,19.82
2019-03-12T03:11:59.301Z,19.81
2019-03-12T03:12:59.330Z,19.82
2019-03-12T03:13:59.281Z,19.86
2019-03-12T03:14:59.273Z,19.88
2019-03-12T03:15:59.275Z,19.82
2019-03-12T03:16:59.278Z,19.77
2019-03-12T03:17:59.243Z,19.79
2019-03-12T03:18:59.261Z,19.79
2019-03-12T03:19:59.265Z,19.77
2019-03-12T03:20:59.189Z,19.69
2019-03-12T03:21:59.194Z,19.77
2019-03-12T03:22:59.182Z,19.77
2019-03-12T03:23:59.212Z,19.85
2019-03-12T03:24:59.174Z,19.82
2019-03-12T03:25:59.143Z,19.81
2019-03-12T03:26:59.146Z,19.81
2019-03-12T03:27:59.174Z,19.76
2019-03-12T03:28:59.128Z,19.84
2019-03-12T03:29:59.113Z,19.89
2019-03-12T03:30:59.127Z,19.88
2019-03-12T03:31:59.137Z,19.86
2019-03-12T03:32:59.111Z,19.91
2019-03-12T03:33:59.083Z,19.94
2019-03-12T03:34:59.038Z,19.89
2019-03-12T03:35:59.042Z,19.91
2019-03-12T03:36:59.015Z,19.89
2019-03-12T03:37:59.010Z,19.77
2019-03-12T03:38:59.978Z,19.85
2019-03-12T03:39:59.008Z,19.86
2019-03-12T03:40:58.980Z,19.74
2019-03-12T03:41:58.967Z,19.82
2019-03-12T03:42:59.013Z,19.84
2019-03-12T03:43:58.931Z,19.94
2019-03-12T03:44:58.933Z,19.92
2019-03-12T03:45:58.931Z,19.84
2019-03-12T03:46:58.947Z,19.86
2019-03-12T03:47:58.965Z,19.88
2019-03-12T03:48:59.031Z,19.88
2019-03-12T03:49:58.873Z,19.82
2019-03-12T03:50:58.859Z,19.71
2019-03-12T03:51:58.901Z,19.81
2019-03-12T03:52:58.857Z,19.82
2019-03-12T03:53:58.836Z,19.77
2019-03-12T03:54:58.834Z,19.70
2019-03-12T03:55:58.819Z,19.77
2019-03-12T03:56:58.810Z,19.76
2019-03-12T03:57:58.882Z,19.76
2019-03-12T03:58:58.772Z,19.84
2019-03-12T03:59:58.769Z,19.82
2019-03-12T04:00:58.769Z,19.77
2019-03-12T04:01:58.832Z,19.82
2019-03-12T04:02:58.748Z,19.77
2019-03-12T04:03:58.864Z,19.77
2019-03-12T04:04:58.731Z,19.76
2019-03-12T04:05:58.744Z,19.79
2019-03-12T04:06:58.711Z,19.79
2019-03-12T04:07:58.798Z,19.76
2019-03-12T04:08:58.655Z,19.74
2019-03-12T04:09:58.634Z,19.81
2019-03-12T04:10:58.622Z,19.82
2019-03-12T04:11:58.612Z,19.81
2019-03-12T04:12:58.606Z,19.81
2019-03-12T04:13:58.613Z,19.77
2019-03-12T04:14:58.589Z,19.82
2019-03-12T04:15:58.599Z,19.66
2019-03-12T04:16:58.620Z,19.77
2019-03-12T04:17:58.567Z,19.84
2019-03-12T04:18:59.504Z,19.85
2019-03-12T04:19:58.593Z,19.77
2019-03-12T04:20:58.536Z,19.76
2019-03-12T04:21:58.555Z,19.76
2019-03-12T04:22:58.527Z,19.74
2019-03-12T04:23:58.524Z,19.81
2019-03-12T04:24:58.493Z,19.81
2019-03-12T04:25:58.500Z,19.81
2019-03-12T04:26:58.481Z,19.81
2019-03-12T04:27:58.444Z,19.76
2019-03-12T04:28:58.444Z,19.74
2019-03-12T04:29:58.435Z,19.82
2019-03-12T04:30:58.404Z,19.76
2019-03-12T04:31:58.570Z,19.81
2019-03-12T04:32:58.394Z,19.76
2019-03-12T04:33:58.439Z,19.79
2019-03-12T04:34:58.363Z,19.82
2019-03-12T04:35:58.406Z,19.81
2019-03-12T04:36:58.374Z,19.77
2019-03-12T04:37:58.343Z,19.85
2019-03-12T04:38:58.329Z,19.81
2019-03-12T04:39:58.294Z,19.82
2019-03-12T04:40:58.296Z,19.79
2019-03-12T04:41:58.384Z,19.86
2019-03-12T04:42:58.271Z,19.76
2019-03-12T04:43:58.282Z,19.77
2019-03-12T04:44:58.271Z,19.85
2019-03-12T04:45:58.327Z,19.79
2019-03-12T04:46:58.343Z,19.85
2019-03-12T04:47:58.223Z,19.86
2019-03-12T04:48:58.214Z,19.82
2019-03-12T04:49:58.196Z,19.76
2019-03-12T04:50:58.171Z,19.81
2019-03-12T04:51:58.159Z,19.76
2019-03-12T04:52:58.177Z,19.82
2019-03-12T04:53:58.180Z,19.84
2019-03-12T04:54:58.155Z,19.77
2019-03-12T04:55:58.150Z,19.76
2019-03-12T04:56:58.126Z,19.77
2019-03-12T04:57:58.110Z,19.86
2019-03-12T04:58:58.130Z,19.74
2019-03-12T04:59:58.111Z,19.82
2019-03-12T05:00:58.057Z,19.74
2019-03-12T05:01:58.126Z,19.91
2019-03-12T05:02:58.041Z,19.84
2019-03-12T05:03:58.087Z,19.82
2019-03-12T05:04:58.014Z,19.85
2019-03-12T05:05:58.032Z,19.85
2019-03-12T05:06:58.025Z,19.84
2019-03-12T05:07:57.998Z,19.74
2019-03-12T05:08:58.000Z,19.84
2019-03-12T05:09:58.012Z,19.73
2019-03-12T05:10:57.948Z,19.77
2019-03-12T05:11:58.049Z,19.82
2019-03-12T05:12:57.931Z,19.88
2019-03-12T05:13:57.938Z,19.85
2019-03-12T05:14:57.907Z,19.84
2019-03-12T05:15:57.927Z,19.86
2019-03-12T05:16:57.994Z,19.84
2019-03-12T05:17:57.868Z,19.79
2019-03-12T05:18:57.861Z,19.81
2019-03-12T05:19:57.894Z,19.77
2019-03-12T05:20:57.926Z,19.76
2019-03-12T05:21:57.865Z,19.81
2019-03-12T05:22:57.812Z,19.81
2019-03-12T05:23:57.818Z,19.84
2019-03-12T05:24:57.831Z,19.85
2019-03-12T05:25:57.782Z,19.74
2019-03-12T05:26:57.774Z,19.41
2019-03-12T05:27:57.797Z,19.31
2019-03-12T05:28:57.743Z,18.90
2019-03-12T05:29:57.750Z,18.60
2019-03-12T05:30:57.737Z,18.33
2019-03-12T05:31:57.764Z,18.13
2019-03-12T05:32:57.699Z,17.86
2019-03-12T05:33:57.710Z,17.63
2019-03-12T05:34:57.706Z,17.44
2019-03-12T05:35:57.688Z,17.29
2019-03-12T05:36:57.653Z,17.39
2019-03-12T05:37:57.657Z,17.45
2019-03-12T05:38:57.646Z,17.60
2019-03-12T05:39:57.614Z,17.79
2019-03-12T05:40:57.613Z,17.92
2019-03-12T05:41:58.518Z,18.00
2019-03-12T05:42:57.596Z,18.11
2019-03-12T05:43:57.573Z,18.07
2019-03-12T05:44:57.567Z,18.23
2019-03-12T05:45:57.604Z,18.29
2019-03-12T05:46:57.555Z,18.37
2019-03-12T05:47:57.544Z,18.38
2019-03-12T05:48:57.559Z,18.53
2019-03-12T05:49:57.538Z,18.56
2019-03-12T05:50:57.503Z,18.62
2019-03-12T05:51:57.492Z,18.62
2019-03-12T05:52:57.536Z,18.80
2019-03-12T05:53:57.501Z,18.81
2019-03-12T05:54:57.460Z,18.89
2019-03-12T05:55:57.455Z,18.80
2019-03-12T05:56:57.440Z,18.93
2019-03-12T05:57:57.473Z,18.96
2019-03-12T05:58:57.432Z,18.99
2019-03-12T05:59:57.404Z,19.07
2019-03-12T06:00:57.419Z,19.14
2019-03-12T06:01:57.395Z,19.08
2019-03-12T06:02:57.369Z,19.27
2019-03-12T06:03:57.351Z,19.27
2019-03-12T06:04:57.367Z,19.26
2019-03-12T06:05:57.326Z,19.30
2019-03-12T06:06:57.367Z,19.27
2019-03-12T06:07:57.310Z,19.36
2019-03-12T06:08:57.302Z,19.45
2019-03-12T06:09:57.287Z,19.44
2019-03-12T06:10:57.384Z,19.54
2019-03-12T06:11:57.418Z,19.56
2019-03-12T06:12:57.247Z,19.66
2019-03-12T06:13:57.265Z,19.64
2019-03-12T06:14:57.255Z,19.74
2019-03-12T06:15:57.289Z,19.79
2019-03-12T06:16:57.207Z,19.81
2019-03-12T06:17:57.191Z,19.84
2019-03-12T06:18:57.244Z,19.81
2019-03-12T06:19:57.195Z,19.89
2019-03-12T06:20:57.167Z,19.88
2019-03-12T06:21:57.202Z,19.89
2019-03-12T06:22:57.167Z,19.91
2019-03-12T06:23:57.134Z,19.92
2019-03-12T06:24:57.129Z,19.88
2019-03-12T06:25:57.098Z,19.94
2019-03-12T06:26:57.128Z,19.81
2019-03-12T06:27:57.088Z,19.85
2019-03-12T06:28:57.069Z,19.88
2019-03-12T06:29:57.122Z,19.91
2019-03-12T06:30:57.046Z,19.89
2019-03-12T06:31:58.065Z,19.92
2019-03-12T06:32:57.029Z,20.06
2019-03-12T06:33:57.012Z,20.03
2019-03-12T06:34:57.155Z,19.99
2019-03-12T06:35:57.033Z,19.96
2019-03-12T06:36:56.994Z,19.99
2019-03-12T06:37:56.969Z,20.00
2019-03-12T06:38:56.963Z,20.03
2019-03-12T06:39:56.967Z,20.06
2019-03-12T06:40:56.949Z,20.02
2019-03-12T06:41:57.015Z,20.06
2019-03-12T06:42:56.914Z,20.04
2019-03-12T06:43:56.895Z,20.09
2019-03-12T06:44:56.928Z,20.10
2019-03-12T06:45:56.883Z,20.07
2019-03-12T06:46:56.876Z,20.03
2019-03-12T06:47:56.876Z,20.04
2019-03-12T06:48:56.844Z,20.02
2019-03-12T06:49:56.830Z,20.18
2019-03-12T06:50:56.816Z,20.13
2019-03-12T06:51:56.863Z,20.13
2019-03-12T06:52:56.862Z,20.10
2019-03-12T06:53:56.788Z,20.16
2019-03-12T06:54:56.839Z,20.09
2019-03-12T06:55:56.897Z,20.10
2019-03-12T06:56:56.754Z,20.22
2019-03-12T06:57:56.746Z,20.21
2019-03-12T06:58:56.751Z,20.21
2019-03-12T06:59:56.708Z,20.16
2019-03-12T07:00:56.723Z,20.32
2019-03-12T07:01:56.786Z,20.31
2019-03-12T07:02:56.683Z,20.31
2019-03-12T07:03:56.664Z,20.29
2019-03-12T07:04:56.696Z,20.31
2019-03-12T07:05:56.705Z,20.26
2019-03-12T07:06:56.644Z,20.26
2019-03-12T07:07:56.622Z,20.18
2019-03-12T07:08:56.621Z,20.14
2019-03-12T07:09:56.606Z,20.21
2019-03-12T07:10:56.592Z,20.21
2019-03-12T07:11:56.587Z,20.14
2019-03-12T07:12:56.599Z,20.16
2019-03-12T07:13:56.605Z,20.19
2019-03-12T07:14:56.622Z,20.13
2019-03-12T07:15:56.579Z,20.19
2019-03-12T07:16:56.648Z,20.13
2019-03-12T07:17:56.515Z,20.18
2019-03-12T07:18:56.538Z,20.19
2019-03-12T07:19:56.500Z,20.18
2019-03-12T07:20:56.497Z,20.19
2019-03-12T07:21:56.465Z,20.25
2019-03-12T07:22:56.538Z,20.19
2019-03-12T07:23:56.446Z,20.21
2019-03-12T07:24:56.436Z,20.34
2019-03-12T07:25:56.441Z,20.31
2019-03-12T07:26:56.475Z,20.28
2019-03-12T07:27:56.494Z,20.29
2019-03-12T07:28:56.395Z,20.29
2019-03-12T07:29:56.387Z,20.37
2019-03-12T07:30:56.452Z,20.40
2019-03-12T07:31:56.435Z,20.40
2019-03-12T07:32:56.581Z,20.39
2019-03-12T07:33:56.321Z,20.47
2019-03-12T07:34:56.322Z,20.40
2019-03-12T07:35:56.330Z,20.47
2019-03-12T07:36:56.321Z,20.48
2019-03-12T07:37:56.321Z,20.48
2019-03-12T07:38:56.288Z,20.50
2019-03-12T07:39:56.341Z,20.44
2019-03-12T07:40:56.286Z,20.52
2019-03-12T07:41:56.266Z,20.37
2019-03-12T07:42:56.222Z,20.44
2019-03-12T07:43:56.290Z,20.50
2019-03-12T07:44:56.199Z,20.41
2019-03-12T07:45:56.217Z,20.47
2019-03-12T07:46:56.199Z,20.40
2019-03-12T07:47:56.189Z,20.44
2019-03-12T07:48:56.170Z,20.47
2019-03-12T07:49:56.164Z,20.50
2019-03-12T07:50:56.212Z,20.55
2019-03-12T07:51:56.128Z,20.56
2019-03-12T07:52:56.129Z,20.58
2019-03-12T07:53:59.685Z,20.50
2019-03-12T07:54:56.166Z,20.47
2019-03-12T07:55:56.090Z,20.50
2019-03-12T07:56:57.161Z,20.50
2019-03-12T07:57:56.071Z,20.50
2019-03-12T07:58:56.198Z,20.51
2019-03-12T07:59:56.148Z,20.44
2019-03-12T08:00:56.051Z,20.48
2019-03-12T08:01:56.079Z,20.47
2019-03-12T08:02:56.006Z,20.51
2019-03-12T08:03:58.992Z,20.48
2019-03-12T08:04:55.982Z,20.55
2019-03-12T08:05:55.963Z,20.51
2019-03-12T08:06:56.039Z,20.58
2019-03-12T08:07:55.957Z,20.52
2019-03-12T08:08:55.940Z,20.56
2019-03-12T08:09:55.920Z,20.55
2019-03-12T08:10:55.974Z,20.62
2019-03-12T08:11:55.920Z,20.62
2019-03-12T08:12:55.932Z,20.63
2019-03-12T08:13:55.892Z,20.63
2019-03-12T08:14:55.962Z,20.65
2019-03-12T08:15:55.915Z,20.60
2019-03-12T08:16:55.840Z,20.70
2019-03-12T08:17:55.824Z,20.63
2019-03-12T08:18:55.971Z,20.66
2019-03-12T08:19:55.805Z,20.69
2019-03-12T08:20:55.832Z,20.72
2019-03-12T08:21:55.791Z,20.65
2019-03-12T08:22:55.781Z,20.65
2019-03-12T08:23:55.850Z,20.66
2019-03-12T08:24:55.748Z,20.66
2019-03-12T08:25:55.796Z,20.67
2019-03-12T08:26:55.725Z,20.67
2019-03-12T08:27:55.754Z,20.74
2019-03-12T08:28:55.718Z,20.77
2019-03-12T08:29:55.713Z,20.70
2019-03-12T08:30:55.697Z,20.66
2019-03-12T08:31:55.813Z,20.70
2019-03-12T08:32:55.699Z,20.78
2019-03-12T08:33:55.883Z,20.69
2019-03-12T08:34:55.635Z,20.74
2019-03-12T08:35:55.623Z,20.74
2019-03-12T08:36:55.612Z,20.77
2019-03-12T08:37:55.613Z,20.69
2019-03-12T08:38:55.592Z,20.78
2019-03-12T08:39:55.842Z,20.81
2019-03-12T08:40:55.585Z,20.75
2019-03-12T08:41:55.560Z,20.69
2019-03-12T08:42:55.636Z,20.70
2019-03-12T08:43:55.542Z,20.69
2019-03-12T08:44:58.824Z,20.72
2019-03-12T08:45:55.585Z,20.78
2019-03-12T08:46:55.501Z,20.78
2019-03-12T08:47:55.489Z,20.81
2019-03-12T08:48:55.487Z,20.75
2019-03-12T08:49:55.557Z,20.81
2019-03-12T08:50:55.510Z,20.84
2019-03-12T08:51:55.473Z,20.84
2019-03-12T08:52:55.452Z,20.85
2019-03-12T08:53:56.064Z,20.85
2019-03-12T08:54:55.441Z,20.84
2019-03-12T08:55:55.466Z,20.88
2019-03-12T08:56:55.381Z,20.78
2019-03-12T08:57:55.451Z,20.88
2019-03-12T08:58:55.369Z,20.82
2019-03-12T08:59:55.388Z,20.92
2019-03-12T09:00:55.390Z,20.99
2019-03-12T09:01:55.365Z,21.00
2019-03-12T09:02:55.386Z,20.93
2019-03-12T09:03:55.407Z,20.95
2019-03-12T09:04:55.351Z,21.05
2019-03-12T09:05:55.282Z,20.87
2019-03-12T09:06:55.276Z,20.96
2019-03-12T09:07:55.293Z,21.03
2019-03-12T09:08:55.247Z,20.99
2019-03-12T09:09:55.258Z,21.00
2019-03-12T09:10:55.268Z,21.07
2019-03-12T09:11:55.235Z,20.99
2019-03-12T09:12:55.204Z,21.05
2019-03-12T09:13:55.237Z,21.06
2019-03-12T09:14:55.199Z,20.99
2019-03-12T09:15:55.183Z,20.97
2019-03-12T09:16:55.155Z,20.95
2019-03-12T09:17:55.206Z,21.02
2019-03-12T09:18:55.162Z,20.96
2019-03-12T09:19:55.132Z,20.97
2019-03-12T09:20:55.115Z,21.14
2019-03-12T09:21:55.107Z,20.97
2019-03-12T09:22:55.089Z,20.99
2019-03-12T09:23:55.085Z,20.99
2019-03-12T09:24:55.120Z,21.00
2019-03-12T09:25:55.071Z,21.06
2019-03-12T09:26:55.070Z,21.21
2019-03-12T09:27:55.043Z,21.03
2019-03-12T09:28:55.128Z,21.06
2019-03-12T09:29:55.015Z,21.20
2019-03-12T09:30:55.030Z,21.12
2019-03-12T09:32:06.157Z,21.12
2019-03-12T09:32:54.981Z,21.21
2019-03-12T09:33:55.047Z,21.24
2019-03-12T09:34:54.954Z,21.20
2019-03-12T09:35:55.095Z,21.22
2019-03-12T09:36:54.939Z,21.22
2019-03-12T09:37:54.937Z,21.18
2019-03-12T09:38:54.918Z,21.18
2019-03-12T09:39:54.906Z,21.15
2019-03-12T09:40:54.901Z,21.21
2019-03-12T09:41:54.886Z,21.15
2019-03-12T09:42:54.901Z,21.18
2019-03-12T09:43:54.861Z,21.25
2019-03-12T09:44:54.870Z,21.22
2019-03-12T09:45:54.886Z,21.20
2019-03-12T09:46:54.818Z,21.18
2019-03-12T09:47:54.808Z,21.07
2019-03-12T09:48:54.817Z,21.18
2019-03-12T09:49:54.788Z,21.21
2019-03-12T09:50:54.805Z,21.21
2019-03-12T09:51:54.788Z,21.24
2019-03-12T09:52:54.791Z,21.21
2019-03-12T09:53:54.776Z,21.24
2019-03-12T09:54:54.737Z,21.29
2019-03-12T09:55:54.729Z,21.24
2019-03-12T09:56:54.799Z,21.30
2019-03-12T09:57:54.756Z,21.39
2019-03-12T09:58:54.687Z,21.30
2019-03-12T09:59:54.721Z,21.27
2019-03-12T10:00:54.720Z,21.22
2019-03-12T10:01:54.727Z,21.30
2019-03-12T10:02:54.662Z,21.25
2019-03-12T10:03:54.643Z,21.25
2019-03-12T10:04:54.851Z,21.22
2019-03-12T10:05:54.639Z,21.21
2019-03-12T10:06:54.593Z,21.17
2019-03-12T10:07:54.602Z,21.21
2019-03-12T10:08:54.592Z,21.18
2019-03-12T10:09:54.583Z,21.30
2019-03-12T10:10:54.602Z,21.18
2019-03-12T10:11:54.541Z,21.20
2019-03-12T10:12:54.535Z,21.15
2019-03-12T10:13:54.598Z,21.15
2019-03-12T10:14:54.505Z,21.21
2019-03-12T10:15:54.528Z,21.27
2019-03-12T10:16:54.487Z,21.21
2019-03-12T10:17:54.481Z,21.20
2019-03-12T10:18:54.471Z,21.24
2019-03-12T10:19:54.481Z,21.22
2019-03-12T10:20:54.755Z,21.20
2019-03-12T10:21:54.476Z,21.36
2019-03-12T10:22:54.450Z,21.29
2019-03-12T10:23:54.407Z,21.22
2019-03-12T10:24:54.401Z,21.21
2019-03-12T10:25:54.395Z,21.25
2019-03-12T10:26:54.408Z,21.30
2019-03-12T10:27:54.355Z,21.20
2019-03-12T10:28:54.403Z,21.25
2019-03-12T10:29:54.339Z,21.22
2019-03-12T10:30:54.334Z,21.30
2019-03-12T10:31:54.467Z,21.29
2019-03-12T10:32:54.308Z,21.35
2019-03-12T10:33:54.375Z,21.29
2019-03-12T10:34:55.073Z,21.27
2019-03-12T10:35:54.507Z,21.24
2019-03-12T10:36:54.263Z,21.21
2019-03-12T10:37:54.317Z,21.22
2019-03-12T10:38:54.234Z,21.20
2019-03-12T10:39:54.281Z,21.21
2019-03-12T10:40:54.224Z,21.25
2019-03-12T10:41:54.244Z,21.22
2019-03-12T10:42:54.190Z,21.27
2019-03-12T10:43:55.607Z,21.32
2019-03-12T10:44:54.182Z,21.33
2019-03-12T10:45:54.249Z,21.36
2019-03-12T10:46:54.262Z,21.25
2019-03-12T10:47:54.136Z,21.42
2019-03-12T10:48:54.125Z,21.32
2019-03-12T10:49:54.139Z,21.30
2019-03-12T10:50:54.143Z,21.33
2019-03-12T10:51:54.110Z,21.40
2019-03-12T10:52:54.242Z,21.36
2019-03-12T10:53:54.068Z,21.30
2019-03-12T10:54:54.053Z,21.37
2019-03-12T10:55:54.045Z,21.39
2019-03-12T10:56:54.062Z,21.39
2019-03-12T10:57:54.028Z,21.42
2019-03-12T10:58:54.018Z,21.42
2019-03-12T10:59:53.998Z,21.46
2019-03-12T11:00:54.037Z,21.50
2019-03-12T11:01:54.013Z,21.50
2019-03-12T11:02:54.015Z,21.50
2019-03-12T11:03:53.957Z,21.51
2019-03-12T11:04:53.952Z,21.42
2019-03-12T11:05:53.968Z,21.54
2019-03-12T11:06:54.360Z,21.46
2019-03-12T11:07:54.016Z,21.54
2019-03-12T11:08:53.973Z,21.57
2019-03-12T11:09:53.888Z,21.51
2019-03-12T11:10:54.588Z,21.50
2019-03-12T11:11:53.863Z,21.55
2019-03-12T11:12:53.875Z,21.54
2019-03-12T11:13:53.839Z,21.51
2019-03-12T11:14:54.571Z,21.50
2019-03-12T11:15:53.819Z,21.58
2019-03-12T11:16:53.808Z,21.52
2019-03-12T11:17:53.835Z,21.51
2019-03-12T11:18:53.853Z,21.48
2019-03-12T11:19:53.779Z,21.55
2019-03-12T11:20:53.872Z,21.52
2019-03-12T11:21:53.833Z,21.51
2019-03-12T11:22:53.761Z,21.45
2019-03-12T11:23:53.732Z,21.52
2019-03-12T11:24:53.721Z,21.58
2019-03-12T11:25:53.743Z,21.60
2019-03-12T11:26:53.773Z,21.58
2019-03-12T11:27:53.720Z,21.58
2019-03-12T11:28:53.674Z,21.57
2019-03-12T11:29:53.684Z,21.61
2019-03-12T11:30:53.706Z,21.57
2019-03-12T11:31:53.764Z,21.67
2019-03-12T11:32:53.698Z,21.55
2019-03-12T11:33:53.637Z,21.61
2019-03-12T11:34:53.618Z,21.69
2019-03-12T11:35:53.778Z,21.57
2019-03-12T11:36:53.608Z,21.64
2019-03-12T11:37:53.587Z,21.61
2019-03-12T11:38:53.910Z,21.66
2019-03-12T11:39:53.570Z,21.58
2019-03-12T11:40:53.588Z,21.64
2019-03-12T11:41:53.549Z,21.70
2019-03-12T11:42:53.956Z,21.75
2019-03-12T11:43:53.528Z,21.75
2019-03-12T11:44:53.576Z,21.73
2019-03-12T11:45:53.545Z,21.72
2019-03-12T11:46:53.480Z,21.76
2019-03-12T11:47:53.462Z,21.77
2019-03-12T11:48:53.486Z,21.72
2019-03-12T11:49:53.571Z,21.72
2019-03-12T11:50:53.488Z,21.69
2019-03-12T11:51:53.425Z,21.72
2019-03-12T11:52:57.594Z,21.69
2019-03-12T11:53:54.403Z,21.70
2019-03-12T11:54:54.047Z,21.72
2019-03-12T11:55:53.381Z,21.69
2019-03-12T11:56:53.375Z,21.69
2019-03-12T11:57:53.375Z,21.75
2019-03-12T11:58:53.359Z,21.70
2019-03-12T11:59:53.350Z,21.66
2019-03-12T12:00:53.328Z,21.80
2019-03-12T12:01:53.398Z,21.70
2019-03-12T12:02:59.854Z,21.73
2019-03-12T12:03:54.309Z,21.75
2019-03-12T12:04:53.384Z,21.67
2019-03-12T12:05:53.268Z,21.64
2019-03-12T12:06:53.289Z,21.64
2019-03-12T12:07:53.507Z,21.61
2019-03-12T12:08:53.289Z,21.61
2019-03-12T12:09:53.249Z,21.72
2019-03-12T12:10:53.204Z,21.64
2019-03-12T12:11:53.197Z,21.66
2019-03-12T12:12:53.182Z,21.69
2019-03-12T12:13:53.274Z,21.66
2019-03-12T12:14:53.152Z,21.67
2019-03-12T12:15:53.152Z,21.69
2019-03-12T12:16:53.135Z,21.66
2019-03-12T12:17:53.136Z,21.64
2019-03-12T12:18:53.117Z,21.57
2019-03-12T12:19:53.102Z,21.66
2019-03-12T12:20:53.088Z,21.60
2019-03-12T12:21:53.086Z,21.64
2019-03-12T12:22:53.293Z,21.58
2019-03-12T12:23:53.156Z,21.58
2019-03-12T12:24:53.042Z,21.61
2019-03-12T12:25:53.036Z,21.61
2019-03-12T12:26:53.029Z,21.58
2019-03-12T12:27:53.015Z,21.64
2019-03-12T12:28:53.087Z,21.67
2019-03-12T12:29:53.009Z,21.69
2019-03-12T12:30:52.976Z,21.57
2019-03-12T12:31:53.056Z,21.58
2019-03-12T12:32:52.950Z,21.67
2019-03-12T12:33:52.954Z,21.66
2019-03-12T12:34:52.948Z,21.62
2019-03-12T12:35:52.994Z,21.64
2019-03-12T12:36:52.979Z,21.69
2019-03-12T12:37:52.909Z,21.64
2019-03-12T12:38:52.904Z,21.64
2019-03-12T12:39:52.874Z,21.58
2019-03-12T12:40:52.869Z,21.60
2019-03-12T12:41:52.852Z,21.60
2019-03-12T12:42:52.868Z,21.51
2019-03-12T12:43:52.889Z,21.61
2019-03-12T12:44:52.827Z,21.60
2019-03-12T12:45:52.813Z,21.60
2019-03-12T12:46:52.802Z,21.48
2019-03-12T12:47:52.848Z,21.55
2019-03-12T12:48:53.391Z,21.60
2019-03-12T12:49:52.793Z,21.58
2019-03-12T12:51:02.983Z,21.58
2019-03-12T12:51:52.768Z,21.64